Time;durP1;ratioP1;P1;durP2;ratioP2;P2;SDS_P1;SDS_P2;PMS_P1;PMS_P2;Temp;Humidity;BMP_temperature;BMP_pressure;BME280_temperature;BME280_humidity;BME280_pressure;Samples;Min_cycle;Max_cycle;Signal;HPM_P1;HPM_P2
2021/11/03 00:02:05;;;;;;;8.82;4.28;;;;;;;5.02;69.23;98670.44;5001827;28;20062;-48
2021/11/03 00:04:35;;;;;;;8.38;4.85;;;;;;;5.00;69.15;98661.91;5008518;28;20176;-49
2021/11/03 00:07:02;;;;;;;8.77;4.18;;;;;;;4.99;69.64;98665.28;5002369;28;20078;-47
2021/11/03 00:09:30;;;;;;;9.90;4.10;;;;;;;4.99;69.04;98666.16;5001002;28;20058;-45
2021/11/03 00:11:57;;;;;;;11.32;4.63;;;;;;;4.99;69.07;98655.03;4998355;28;20058;-51
2021/11/03 00:14:26;;;;;;;9.90;4.20;;;;;;;5.00;69.10;98661.91;4997837;28;20058;-47
2021/11/03 00:16:53;;;;;;;11.85;5.15;;;;;;;4.98;69.15;98661.03;5001105;28;20050;-48
2021/11/03 00:19:19;;;;;;;10.60;4.43;;;;;;;4.97;69.11;98661.91;4999687;28;20053;-49
2021/11/03 00:21:46;;;;;;;10.70;4.70;;;;;;;4.96;69.31;98661.03;4996174;28;20136;-55
2021/11/03 00:24:12;;;;;;;9.98;3.80;;;;;;;4.92;69.36;98654.19;5002171;28;20050;-49
2021/11/03 00:26:39;;;;;;;10.30;4.43;;;;;;;4.92;69.53;98654.19;5003743;28;20049;-46
2021/11/03 00:29:06;;;;;;;8.90;4.60;;;;;;;4.90;69.53;98661.06;4994337;28;20050;-45
2021/11/03 00:31:35;;;;;;;13.10;5.10;;;;;;;4.91;69.81;98661.91;4991284;28;20698;-47
2021/11/03 00:34:02;;;;;;;8.55;3.92;;;;;;;4.89;69.37;98665.34;4984711;28;20041;-53
2021/11/03 00:36:28;;;;;;;9.13;4.32;;;;;;;4.89;69.46;98670.47;4989043;28;20058;-53
2021/11/03 00:38:55;;;;;;;9.48;4.25;;;;;;;4.87;69.56;98667.03;4984832;28;20050;-52
2021/11/03 00:41:21;;;;;;;10.05;4.50;;;;;;;4.87;69.82;98669.59;4990186;28;20053;-52
2021/11/03 00:43:50;;;;;;;10.77;5.07;;;;;;;4.86;69.61;98665.31;4985856;28;20049;-47
2021/11/03 00:46:17;;;;;;;9.68;3.97;;;;;;;4.85;69.69;98665.31;4984431;28;20050;-48
2021/11/03 00:48:43;;;;;;;11.50;4.70;;;;;;;4.84;70.06;98673.88;4983937;28;20133;-50
2021/11/03 00:51:11;;;;;;;8.73;4.15;;;;;;;4.83;69.56;98670.47;4986113;28;20054;-48
2021/11/03 00:53:40;;;;;;;16.55;4.88;;;;;;;4.82;69.68;98673.03;4984165;28;20430;-54
2021/11/03 00:56:07;;;;;;;12.98;4.95;;;;;;;4.80;69.72;98670.47;4985434;28;20434;-52
2021/11/03 00:58:34;;;;;;;10.75;4.88;;;;;;;4.80;69.99;98660.19;4984502;28;20050;-50
2021/11/03 01:01:01;;;;;;;12.55;5.22;;;;;;;4.79;69.78;98653.38;4986508;28;20054;-46
2021/11/03 01:03:29;;;;;;;12.88;4.97;;;;;;;4.78;69.79;98661.94;4987508;28;20050;-50
2021/11/03 01:05:55;;;;;;;10.82;4.57;;;;;;;4.78;69.81;98661.94;4986462;28;20532;-51
2021/11/03 01:08:22;;;;;;;10.80;4.35;;;;;;;4.76;70.07;98661.06;4986330;28;20117;-53
2021/11/03 01:10:52;;;;;;;9.35;4.00;;;;;;;4.71;71.04;98661.09;4990059;28;20046;-46
2021/11/03 01:13:22;;;;;;;9.65;4.15;;;;;;;4.73;70.86;98650.81;5015486;28;20054;-45
2021/11/03 01:15:50;;;;;;;15.05;4.93;;;;;;;4.71;70.85;98655.97;4983569;28;20050;-45
2021/11/03 01:18:17;;;;;;;9.45;4.22;;;;;;;4.71;70.48;98655.09;5009088;28;20054;-48
2021/11/03 01:20:46;;;;;;;11.13;4.07;;;;;;;4.71;70.97;98657.66;4985722;28;20049;-50
2021/11/03 01:23:13;;;;;;;9.85;4.05;;;;;;;4.69;70.32;98667.09;4982235;28;20050;-54
2021/11/03 01:25:39;;;;;;;9.05;4.25;;;;;;;4.68;70.56;98650.81;4981642;28;20058;-51
2021/11/03 01:28:06;;;;;;;8.30;4.03;;;;;;;4.69;69.81;98661.94;4984742;28;20100;-48
2021/11/03 01:30:33;;;;;;;12.43;4.57;;;;;;;4.66;70.30;98656.81;4982259;28;20069;-45
2021/11/03 01:33:00;;;;;;;8.80;4.20;;;;;;;4.66;70.68;98664.50;4985728;28;20054;-54
2021/11/03 01:35:27;;;;;;;10.05;3.92;;;;;;;4.65;70.56;98662.78;4986767;28;20050;-50
2021/11/03 01:37:56;;;;;;;9.75;4.10;;;;;;;4.65;70.58;98665.34;4977753;28;20126;-52
2021/11/03 01:40:32;;;;;;;8.85;4.07;;;;;;;4.63;70.56;98662.81;4986893;28;20066;-52
2021/11/03 01:42:59;;;;;;;9.43;4.00;;;;;;;4.62;70.95;98669.63;5012018;28;20047;-52
2021/11/03 01:45:27;;;;;;;9.98;4.38;;;;;;;4.62;70.72;98677.34;4986658;28;20061;-48
2021/11/03 01:47:57;;;;;;;8.82;3.90;;;;;;;4.65;70.77;98673.03;4986550;28;20058;-51
2021/11/03 01:50:37;;;;;;;10.60;4.18;;;;;;;4.61;70.87;98673.06;4984888;28;20065;-56
2021/11/03 01:53:11;;;;;;;8.90;4.75;;;;;;;4.62;70.35;98671.34;4985719;28;20125;-50
2021/11/03 01:55:41;;;;;;;12.57;4.80;;;;;;;4.62;70.67;98671.34;4984992;28;20120;-56
2021/11/03 01:58:11;;;;;;;;;;;;;;;4.53;71.41;98666.22;4988310;28;20061;-50
2021/11/03 02:00:40;;;;;;;16.55;6.13;;;;;;;4.57;70.65;98671.38;4985298;28;19929;-49
2021/11/03 02:03:13;;;;;;;19.13;8.02;;;;;;;4.55;70.50;98670.50;4985816;28;20104;-46
2021/11/03 02:05:44;;;;;;;20.63;8.15;;;;;;;4.54;70.98;98673.91;5016162;28;20104;-51
2021/11/03 02:08:11;;;;;;;23.73;8.35;;;;;;;4.52;70.60;98672.22;4986274;28;20049;-53
2021/11/03 02:10:38;;;;;;;21.10;7.88;;;;;;;4.51;71.06;98679.03;4985700;28;20116;-53
2021/11/03 02:13:08;;;;;;;24.73;8.30;;;;;;;4.50;71.06;98685.03;4985278;28;20042;-52
2021/11/03 02:15:34;;;;;;;;;;;;;;;4.40;71.74;98683.31;4985981;28;20055;-50
2021/11/03 02:18:01;;;;;;;23.17;8.18;;;;;;;4.44;71.05;98682.47;4985338;28;19976;-46
2021/11/03 02:20:28;;;;;;;21.13;8.68;;;;;;;4.44;71.39;98685.03;4984910;28;20494;-50
2021/11/03 02:23:06;;;;;;;19.00;7.85;;;;;;;4.43;72.00;98686.72;4987450;28;20053;-52
2021/11/03 02:25:38;;;;;;;19.45;7.15;;;;;;;4.44;71.71;98688.47;4986469;28;20072;-48
2021/11/03 02:28:06;;;;;;;16.25;7.03;;;;;;;4.44;71.55;98682.47;4983681;28;20438;-53
2021/11/03 02:30:33;;;;;;;21.65;6.68;;;;;;;4.46;71.20;98685.91;4984159;28;20046;-50
2021/11/03 02:33:05;;;;;;;19.00;6.95;;;;;;;4.45;71.45;98686.72;4987900;28;20073;-49
2021/11/03 02:35:31;;;;;;;19.05;6.93;;;;;;;4.44;71.58;98683.31;4985264;28;20402;-50
2021/11/03 02:37:59;;;;;;;16.88;6.63;;;;;;;4.44;71.36;98687.59;4985950;28;20442;-49
2021/11/03 02:40:37;;;;;;;19.73;7.95;;;;;;;4.42;71.47;98691.88;4981285;28;20046;-47
2021/11/03 02:43:12;;;;;;;16.25;7.00;;;;;;;4.42;71.88;98684.19;4961126;28;20682;-51
2021/11/03 02:45:46;;;;;;;18.88;7.55;;;;;;;4.41;71.45;98690.16;4962054;28;20074;-48
2021/11/03 02:48:13;;;;;;;17.83;7.63;;;;;;;4.41;71.71;98687.59;4970177;28;20101;-49
2021/11/03 02:51:03;;;;;;;15.32;7.10;;;;;;;4.35;73.66;98685.88;4981074;28;20050;-56
2021/11/03 02:53:30;;;;;;;;;;;;;;;4.30;73.32;98685.88;4980738;28;20061;-50
2021/11/03 02:55:57;;;;;;;13.73;5.47;;;;;;;4.33;72.13;98691.00;4983240;28;19930;-48
2021/11/03 02:58:24;;;;;;;14.18;6.47;;;;;;;4.35;72.40;98693.56;4984974;28;20062;-54
2021/11/03 03:00:54;;;;;;;12.88;5.45;;;;;;;4.35;72.22;98694.44;4982064;28;20509;-49
2021/11/03 03:03:21;;;;;;;17.65;6.68;;;;;;;4.36;72.16;98695.28;4981924;28;20074;-48
2021/11/03 03:05:57;;;;;;;15.38;6.45;;;;;;;4.36;72.37;98698.69;4985108;28;20058;-49
2021/11/03 03:08:24;;;;;;;15.73;6.80;;;;;;;4.39;71.88;98694.44;4984098;28;20054;-55
2021/11/03 03:10:51;;;;;;;19.30;6.80;;;;;;;4.38;71.90;98701.25;4986343;28;20050;-52
2021/11/03 03:13:17;;;;;;;18.67;6.63;;;;;;;4.37;71.84;98705.56;4985658;28;20046;-52
2021/11/03 03:15:44;;;;;;;20.73;6.32;;;;;;;4.36;71.96;98703.81;4983492;28;20077;-51
2021/11/03 03:18:10;;;;;;;18.27;7.03;;;;;;;4.35;71.83;98709.81;4984649;28;20093;-49
2021/11/03 03:20:37;;;;;;;14.48;5.95;;;;;;;4.35;71.79;98704.69;4983206;28;20050;-57
2021/11/03 03:23:04;;;;;;;14.40;6.80;;;;;;;4.34;71.89;98710.66;4984720;28;20046;-55
2021/11/03 03:25:31;;;;;;;15.40;5.60;;;;;;;4.29;71.94;98707.22;4986056;28;20453;-53
2021/11/03 03:27:58;;;;;;;15.45;5.93;;;;;;;4.30;72.04;98708.97;4984769;28;20055;-45
2021/11/03 03:30:24;;;;;;;13.82;5.80;;;;;;;4.30;72.33;98706.38;4980878;28;20070;-50
2021/11/03 03:32:51;;;;;;;17.20;6.22;;;;;;;4.31;72.46;98707.22;4984662;28;20569;-51
2021/11/03 03:35:17;;;;;;;15.30;6.47;;;;;;;4.30;72.22;98711.53;4984394;28;20053;-50
2021/11/03 03:37:44;;;;;;;14.32;5.80;;;;;;;4.31;72.04;98708.09;4984103;28;20064;-45
2021/11/03 03:40:11;;;;;;;17.13;7.68;;;;;;;4.29;72.01;98709.78;4986114;28;20096;-52
2021/11/03 03:42:38;;;;;;;14.05;6.00;;;;;;;4.29;72.62;98709.78;4983192;28;20051;-49
2021/11/03 03:45:06;;;;;;;15.60;6.05;;;;;;;4.28;72.29;98715.78;4987382;28;20054;-51
2021/11/03 03:47:32;;;;;;;15.60;6.38;;;;;;;4.27;71.96;98710.66;4983477;28;20054;-55
2021/11/03 03:49:59;;;;;;;16.05;6.15;;;;;;;4.25;72.47;98718.31;4983535;28;20055;-46
2021/11/03 03:52:26;;;;;;;13.73;6.28;;;;;;;4.25;72.42;98718.31;4979583;28;20078;-48
2021/11/03 03:54:52;;;;;;;13.32;6.22;;;;;;;4.24;72.66;98716.63;4984863;28;20459;-49
2021/11/03 03:57:19;;;;;;;14.15;6.18;;;;;;;4.23;72.30;98723.44;4985969;28;20046;-54
2021/11/03 03:59:45;;;;;;;13.43;5.63;;;;;;;4.22;72.23;98726.03;4985243;28;20046;-44
2021/11/03 04:02:12;;;;;;;14.88;6.03;;;;;;;4.21;72.05;98722.59;4986088;28;20046;-51
2021/11/03 04:04:39;;;;;;;18.83;6.20;;;;;;;4.20;71.95;98725.16;4983637;28;20062;-54
2021/11/03 04:07:06;;;;;;;13.00;5.75;;;;;;;4.18;72.67;98726.84;4986014;28;20054;-52
2021/11/03 04:09:32;;;;;;;13.25;6.43;;;;;;;4.16;72.37;98734.56;4989270;28;20050;-50
2021/11/03 04:11:59;;;;;;;14.35;5.45;;;;;;;4.13;72.63;98726.00;4989884;28;20054;-53
2021/11/03 04:14:25;;;;;;;17.10;6.93;;;;;;;4.11;72.59;98734.56;4986028;28;20441;-46
2021/11/03 04:16:52;;;;;;;13.95;6.55;;;;;;;4.09;72.08;98731.13;4985085;28;20050;-48
2021/11/03 04:19:19;;;;;;;13.15;5.82;;;;;;;4.08;72.32;98742.22;4985682;28;20054;-50
2021/11/03 04:21:50;;;;;;;12.15;5.47;;;;;;;4.06;72.01;98731.09;4985198;28;20052;-52
2021/11/03 04:24:20;;;;;;;13.30;5.70;;;;;;;4.06;72.06;98731.09;4986335;28;20125;-48
2021/11/03 04:26:47;;;;;;;14.63;6.82;;;;;;;4.05;72.13;98737.09;4985124;28;20054;-49
2021/11/03 04:29:17;;;;;;;14.90;7.60;;;;;;;4.04;71.84;98743.06;4985645;28;20061;-55
2021/11/03 04:31:44;;;;;;;13.02;6.20;;;;;;;4.05;72.07;98746.50;5019757;28;20096;-51
2021/11/03 04:34:11;;;;;;;12.73;5.85;;;;;;;4.02;72.47;98746.47;4986885;28;20058;-51
2021/11/03 04:36:38;;;;;;;14.30;5.80;;;;;;;3.99;72.05;98737.91;4986804;28;20080;-52
2021/11/03 04:39:07;;;;;;;16.02;6.93;;;;;;;3.99;71.89;98749.91;4986273;28;20094;-54
2021/11/03 04:41:34;;;;;;;14.25;5.60;;;;;;;3.98;72.50;98750.72;4986464;28;20042;-48
2021/11/03 04:44:01;;;;;;;15.02;6.32;;;;;;;3.97;72.32;98759.28;4988628;28;20055;-47
2021/11/03 04:46:28;;;;;;;13.48;6.25;;;;;;;3.93;71.83;98762.66;4985992;28;20046;-49
2021/11/03 04:48:55;;;;;;;14.13;6.68;;;;;;;3.90;71.80;98762.66;4987054;28;20112;-49
2021/11/03 04:51:21;;;;;;;17.95;6.13;;;;;;;3.88;72.21;98754.97;4989163;28;20445;-49
2021/11/03 04:53:48;;;;;;;14.32;5.75;;;;;;;3.89;71.69;98766.06;4984600;28;20077;-48
2021/11/03 04:56:18;;;;;;;14.95;6.10;;;;;;;3.84;71.85;98764.34;4986612;28;20092;-52
2021/11/03 04:58:46;;;;;;;15.20;6.47;;;;;;;3.84;71.64;98766.91;4987213;28;20050;-50
2021/11/03 05:01:12;;;;;;;14.43;5.97;;;;;;;3.84;72.33;98764.34;4984304;28;20062;-49
2021/11/03 05:03:40;;;;;;;15.15;6.60;;;;;;;3.84;71.75;98774.59;4986712;28;20594;-53
2021/11/03 05:06:07;;;;;;;17.23;6.40;;;;;;;3.86;72.49;98775.44;4986835;28;20101;-49
2021/11/03 05:08:34;;;;;;;15.82;6.53;;;;;;;3.88;72.47;98775.47;4989020;28;20064;-52
2021/11/03 05:11:01;;;;;;;15.93;6.57;;;;;;;3.93;71.53;98778.03;4987787;28;20054;-50
2021/11/03 05:13:28;;;;;;;14.68;6.45;;;;;;;3.95;71.67;98776.34;4985989;28;20069;-49
2021/11/03 05:15:54;;;;;;;14.10;6.35;;;;;;;3.98;72.10;98774.66;4986153;28;20081;-48
2021/11/03 05:18:21;;;;;;;15.82;6.18;;;;;;;4.03;72.12;98782.38;4988375;28;20066;-53
2021/11/03 05:20:48;;;;;;;13.90;6.13;;;;;;;4.06;72.13;98777.22;4988568;28;20406;-53
2021/11/03 05:23:14;;;;;;;13.80;6.90;;;;;;;4.10;72.00;98780.66;4987576;28;20042;-48
2021/11/03 05:25:41;;;;;;;12.93;5.68;;;;;;;4.15;71.97;98789.22;4985074;28;20471;-55
2021/11/03 05:28:10;;;;;;;15.48;6.30;;;;;;;4.20;71.46;98796.94;4990395;28;20054;-47
2021/11/03 05:30:36;;;;;;;14.80;6.07;;;;;;;4.21;71.76;98788.38;4984244;28;20058;-51
2021/11/03 05:33:03;;;;;;;14.23;5.88;;;;;;;4.24;71.44;98793.53;4978803;28;20046;-48
2021/11/03 05:35:29;;;;;;;13.95;5.78;;;;;;;4.28;71.39;98790.13;4985383;28;20065;-44
2021/11/03 05:37:56;;;;;;;12.95;5.68;;;;;;;4.26;71.34;98802.09;4985064;28;20116;-51
2021/11/03 05:40:26;;;;;;;10.48;5.65;;;;;;;4.24;71.02;98798.66;4981101;28;20441;-50
2021/11/03 05:42:53;;;;;;;12.82;5.63;;;;;;;4.24;71.66;98803.78;4986144;28;20050;-59
2021/11/03 05:45:21;;;;;;;12.75;5.90;;;;;;;4.27;71.33;98808.91;4982145;28;20042;-50
2021/11/03 05:47:48;;;;;;;11.85;4.90;;;;;;;4.30;70.86;98819.19;4986433;28;20042;-51
2021/11/03 05:50:19;;;;;;;11.98;5.80;;;;;;;4.33;71.22;98814.03;4987914;28;20103;-49
2021/11/03 05:52:46;;;;;;;13.43;5.15;;;;;;;4.35;71.10;98812.34;4987805;28;20060;-57
2021/11/03 05:55:14;;;;;;;12.80;6.00;;;;;;;4.35;70.87;98816.63;4982578;28;20120;-51
2021/11/03 05:57:42;;;;;;;12.38;6.13;;;;;;;4.34;71.32;98820.91;4987194;28;20101;-49
2021/11/03 06:00:15;;;;;;;13.02;5.70;;;;;;;4.32;70.97;98817.47;4979173;28;20047;-54
2021/11/03 06:02:42;;;;;;;12.93;5.85;;;;;;;4.34;71.32;98810.66;4985874;28;20459;-49
2021/11/03 06:05:11;;;;;;;11.40;5.68;;;;;;;4.35;71.16;98822.59;4984710;28;20580;-54
2021/11/03 06:07:39;;;;;;;18.40;6.93;;;;;;;4.37;71.13;98820.91;4988079;28;20050;-46
2021/11/03 06:10:07;;;;;;;16.35;7.57;;;;;;;4.41;71.60;98831.16;4987880;28;20047;-55
2021/11/03 06:12:34;;;;;;;15.68;7.05;;;;;;;4.44;71.55;98831.16;4979864;28;20057;-46
2021/11/03 06:15:01;;;;;;;18.35;6.88;;;;;;;4.48;71.60;98822.63;4981911;28;20173;-46
2021/11/03 06:17:28;;;;;;;17.60;7.55;;;;;;;4.53;71.52;98820.94;4980664;28;20425;-54
2021/11/03 06:19:54;;;;;;;14.43;6.40;;;;;;;4.57;71.54;98825.22;4980316;28;20672;-46
2021/11/03 06:22:21;;;;;;;15.70;6.68;;;;;;;4.59;71.56;98820.94;4979778;28;20066;-51
2021/11/03 06:24:48;;;;;;;16.85;6.85;;;;;;;4.61;71.36;98829.50;4978869;28;20058;-53
2021/11/03 06:27:15;;;;;;;12.90;6.90;;;;;;;4.63;71.22;98827.78;4984107;28;20042;-54
2021/11/03 06:29:41;;;;;;;18.73;6.82;;;;;;;4.63;71.22;98827.78;4981220;28;20054;-53
2021/11/03 06:32:08;;;;;;;15.70;6.75;;;;;;;4.66;71.07;98833.78;4983908;28;20145;-47
2021/11/03 06:34:36;;;;;;;17.90;7.80;;;;;;;4.69;71.11;98831.25;4986003;28;20061;-50
2021/11/03 06:37:04;;;;;;;22.63;7.13;;;;;;;4.71;71.64;98834.66;4986888;28;20073;-51
2021/11/03 06:39:31;;;;;;;19.55;7.82;;;;;;;4.74;71.88;98839.78;4986772;28;20046;-55
2021/11/03 06:41:58;;;;;;;17.38;7.30;;;;;;;4.77;71.94;98844.94;4985198;28;20057;-53
2021/11/03 06:44:25;;;;;;;15.10;5.65;;;;;;;4.79;71.76;98843.19;4986223;28;20069;-54
2021/11/03 06:46:51;;;;;;;15.02;7.03;;;;;;;4.80;71.63;98850.03;4987486;28;20065;-52
2021/11/03 06:49:18;;;;;;;14.63;6.70;;;;;;;4.80;71.51;98849.19;4986345;28;20125;-51
2021/11/03 06:51:45;;;;;;;13.90;6.22;;;;;;;4.80;71.22;98844.91;4985740;28;20053;-45
2021/11/03 06:54:11;;;;;;;15.15;6.53;;;;;;;4.82;71.28;98843.22;4986640;28;20517;-45
2021/11/03 06:56:38;;;;;;;11.15;5.28;;;;;;;4.80;71.48;98844.91;4983100;28;20684;-51
2021/11/03 06:59:05;;;;;;;14.30;6.25;;;;;;;4.82;71.27;98850.91;4987001;28;20541;-48
2021/11/03 07:01:32;;;;;;;15.43;5.95;;;;;;;4.85;71.44;98853.50;4983632;28;20038;-54
2021/11/03 07:03:59;;;;;;;14.93;6.03;;;;;;;4.87;71.30;98851.75;4985480;28;20520;-44
2021/11/03 07:06:26;;;;;;;12.68;5.40;;;;;;;4.87;70.83;98853.50;4985993;28;20057;-50
2021/11/03 07:08:54;;;;;;;15.95;7.53;;;;;;;4.86;71.04;98860.31;4986917;28;20563;-49
2021/11/03 07:11:23;;;;;;;17.23;7.35;;;;;;;4.89;71.55;98859.47;4981636;28;20066;-49
2021/11/03 07:13:51;;;;;;;16.23;5.72;;;;;;;4.88;71.64;98863.75;4987453;28;20042;-52
2021/11/03 07:16:18;;;;;;;20.42;7.32;;;;;;;4.92;71.43;98868.88;4980989;28;20058;-53
2021/11/03 07:18:44;;;;;;;17.52;7.25;;;;;;;4.96;72.80;98873.19;4984056;28;20069;-52
2021/11/03 07:21:11;;;;;;;18.58;7.30;;;;;;;4.98;71.59;98864.63;4984289;28;20046;-53
2021/11/03 07:23:38;;;;;;;17.90;7.35;;;;;;;5.06;71.96;98874.03;4982619;28;20046;-52
2021/11/03 07:26:05;;;;;;;17.02;7.03;;;;;;;5.11;71.31;98886.03;4978166;28;20115;-50
2021/11/03 07:28:32;;;;;;;22.88;9.15;;;;;;;5.13;71.67;98884.31;4978721;28;20061;-51
2021/11/03 07:30:59;;;;;;;20.42;8.02;;;;;;;5.20;71.70;98889.44;4978330;28;20050;-46
2021/11/03 07:33:26;;;;;;;20.60;8.20;;;;;;;5.24;71.95;98889.44;4978256;28;20050;-52
2021/11/03 07:35:52;;;;;;;19.65;7.93;;;;;;;5.31;71.41;98903.16;4979569;28;20072;-49
2021/11/03 07:38:19;;;;;;;19.15;7.55;;;;;;;5.36;71.37;98901.44;4983766;28;20057;-55
2021/11/03 07:40:49;;;;;;;18.35;7.35;;;;;;;5.38;72.08;98899.69;4982008;28;20042;-56
2021/11/03 07:43:18;;;;;;;25.52;8.18;;;;;;;5.40;72.00;98908.28;4970389;28;20042;-53
2021/11/03 07:45:47;;;;;;;18.08;7.57;;;;;;;5.45;71.88;98915.13;4985472;28;20046;-56
2021/11/03 07:48:14;;;;;;;21.88;8.43;;;;;;;5.45;71.64;98915.13;4984103;28;20547;-51
2021/11/03 07:50:45;;;;;;;20.00;8.23;;;;;;;5.49;71.31;98927.09;4988109;28;20046;-51
2021/11/03 07:53:14;;;;;;;20.90;7.57;;;;;;;5.54;71.28;98920.25;4992128;28;20042;-46
2021/11/03 07:55:43;;;;;;;18.05;7.95;;;;;;;5.57;72.47;98919.41;4984636;28;20054;-51
2021/11/03 07:58:14;;;;;;;19.58;7.80;;;;;;;5.60;71.97;98925.38;4988265;28;20050;-48
2021/11/03 08:00:46;;;;;;;18.58;8.02;;;;;;;5.65;71.83;98933.09;5014457;28;20046;-52
2021/11/03 08:03:13;;;;;;;22.90;7.90;;;;;;;5.70;71.47;98935.66;4989689;28;20410;-53
2021/11/03 08:05:40;;;;;;;18.27;7.43;;;;;;;5.77;71.94;98937.34;4989372;28;20050;-49
2021/11/03 08:08:11;;;;;;;20.35;6.88;;;;;;;5.80;72.26;98937.34;4987683;28;20113;-53
2021/11/03 08:10:41;;;;;;;18.45;7.70;;;;;;;5.87;72.10;98939.06;4987230;28;20548;-54
2021/11/03 08:13:12;;;;;;;16.92;6.60;;;;;;;5.91;71.96;98948.47;4991415;28;20050;-51
2021/11/03 08:15:39;;;;;;;17.02;7.43;;;;;;;5.97;72.46;98949.31;4985267;28;20038;-55
2021/11/03 08:18:06;;;;;;;17.35;6.07;;;;;;;6.03;72.52;98949.31;4987467;28;20058;-47
2021/11/03 08:20:34;;;;;;;17.73;6.57;;;;;;;6.10;72.21;98955.34;4983267;28;20081;-50
2021/11/03 08:23:01;;;;;;;15.60;5.65;;;;;;;6.19;73.22;98954.47;4985059;28;21032;-52
2021/11/03 08:25:28;;;;;;;17.73;5.75;;;;;;;6.26;73.25;98956.16;4985864;28;20046;-55
2021/11/03 08:27:55;;;;;;;18.40;6.00;;;;;;;6.35;72.54;98956.13;4980740;28;20058;-50
2021/11/03 08:30:22;;;;;;;14.77;5.47;;;;;;;6.43;73.04;98953.53;4981573;28;20082;-48
2021/11/03 08:32:52;;;;;;;15.13;5.53;;;;;;;6.53;72.60;98960.38;4981175;28;20105;-53
2021/11/03 08:35:21;;;;;;;;;;;;;;;6.49;74.42;98953.50;4967123;28;20066;-46
2021/11/03 08:37:49;;;;;;;9.68;4.32;;;;;;;6.57;73.96;98961.22;4983750;28;19984;-45
2021/11/03 08:40:18;;;;;;;9.48;4.38;;;;;;;6.62;73.23;98959.47;4987155;28;20587;-51
2021/11/03 08:42:45;;;;;;;7.05;2.70;;;;;;;6.64;73.93;98957.75;4987824;28;20042;-55
2021/11/03 08:45:12;;;;;;;13.88;5.72;;;;;;;6.73;73.62;98956.00;4987109;28;20047;-49
2021/11/03 08:47:41;;;;;;;15.32;5.18;;;;;;;6.79;72.97;98966.28;4984314;28;20490;-56
2021/11/03 08:50:14;;;;;;;15.82;5.68;;;;;;;6.85;73.45;98971.38;4989535;28;20047;-55
2021/11/03 08:52:41;;;;;;;15.15;5.05;;;;;;;6.87;73.62;98964.50;4985080;28;20043;-50
2021/11/03 08:55:08;;;;;;;11.73;4.82;;;;;;;6.89;74.79;98965.34;4989778;28;20116;-56
2021/11/03 08:57:35;;;;;;;11.10;4.22;;;;;;;6.92;72.74;98969.59;4986409;28;20108;-50
2021/11/03 09:00:08;;;;;;;11.02;3.90;;;;;;;6.91;74.80;98976.50;4988565;28;20058;-53
2021/11/03 09:02:35;;;;;;;13.52;5.85;;;;;;;6.94;73.62;98970.47;5016831;28;20042;-54
2021/11/03 09:05:03;;;;;;;10.20;3.70;;;;;;;6.92;74.74;98973.06;4986204;28;20038;-51
2021/11/03 09:07:32;;;;;;;13.20;5.00;;;;;;;6.97;74.63;98978.19;4984305;28;20046;-52
2021/11/03 09:10:03;;;;;;;6.97;3.05;;;;;;;6.96;75.10;98978.19;4984163;28;20826;-50
2021/11/03 09:12:29;;;;;;;12.45;4.88;;;;;;;7.01;74.06;98976.44;4988605;28;20100;-50
2021/11/03 09:14:56;;;;;;;12.35;5.15;;;;;;;7.00;73.98;98979.88;4986175;28;20051;-54
2021/11/03 09:17:25;;;;;;;11.45;4.07;;;;;;;6.99;76.00;98983.34;4984681;28;20061;-50
2021/11/03 09:19:53;;;;;;;21.45;5.03;;;;;;;7.03;74.86;98991.00;4987974;28;20046;-50
2021/11/03 09:22:20;;;;;;;9.65;4.78;;;;;;;7.07;75.39;98991.88;4981604;28;20498;-50
2021/11/03 09:24:46;;;;;;;11.32;5.90;;;;;;;7.09;74.15;98995.28;4991084;28;20076;-47
2021/11/03 09:27:14;;;;;;;9.50;4.05;;;;;;;7.17;74.34;98998.66;4988597;28;20067;-48
2021/11/03 09:29:43;;;;;;;10.65;4.63;;;;;;;7.29;74.84;99008.03;4983669;28;20054;-55
2021/11/03 09:32:12;;;;;;;7.20;3.58;;;;;;;7.39;74.65;99008.84;4987140;28;20058;-51
2021/11/03 09:34:43;;;;;;;7.88;3.40;;;;;;;7.47;74.71;99008.81;4987801;28;20397;-49
2021/11/03 09:37:11;;;;;;;9.93;4.22;;;;;;;7.50;74.96;99000.19;4984399;28;20116;-52
2021/11/03 09:39:38;;;;;;;8.13;3.40;;;;;;;7.56;73.95;99007.84;4987113;28;20053;-53
2021/11/03 09:42:09;;;;;;;6.82;2.55;;;;;;;7.59;74.80;99011.28;4985445;28;20080;-54
2021/11/03 09:44:37;;;;;;;9.02;3.60;;;;;;;7.61;74.50;99007.84;4987913;28;20104;-54
2021/11/03 09:47:20;;;;;;;9.07;4.10;;;;;;;7.62;76.36;99006.97;4988126;28;20565;-52
2021/11/03 09:49:49;;;;;;;;;;;;;;;7.62;76.67;99005.25;5014022;28;20050;-48
2021/11/03 09:52:33;;;;;;;3.25;1.83;;;;;;;7.82;76.40;99009.38;4984246;28;19930;-52
2021/11/03 09:55:19;;;;;;;10.38;4.50;;;;;;;8.08;75.29;99000.59;4991537;28;20050;-53
2021/11/03 09:57:55;;;;;;;7.75;3.55;;;;;;;8.24;75.48;99003.84;4987074;28;20050;-53
2021/11/03 10:00:36;;;;;;;5.90;3.25;;;;;;;8.29;75.71;99007.25;4983074;28;20427;-50
2021/11/03 10:03:32;;;;;;;4.57;2.03;;;;;;;8.41;74.69;99011.41;4987839;28;20514;-51
2021/11/03 10:06:23;;;;;;;6.57;2.90;;;;;;;8.48;75.29;99012.22;4982617;28;20052;-51
2021/11/03 10:08:52;;;;;;;7.97;3.30;;;;;;;8.52;74.20;99016.47;4985318;28;20058;-50
2021/11/03 10:11:26;;;;;;;7.80;3.08;;;;;;;8.58;73.40;99023.34;4989787;28;20058;-50
2021/11/03 10:13:55;;;;;;;10.73;3.35;;;;;;;8.61;73.81;99023.28;4986996;28;20049;-50
2021/11/03 10:16:28;;;;;;;5.63;2.67;;;;;;;8.65;74.30;99035.28;4983721;28;20046;-50
2021/11/03 10:19:21;;;;;;;4.55;1.73;;;;;;;8.69;74.57;99028.38;4985059;28;20062;-51
2021/11/03 10:21:52;;;;;;;6.93;2.88;;;;;;;8.79;73.82;99026.53;4985559;28;20487;-51
2021/11/03 10:24:30;;;;;;;2.53;1.92;;;;;;;8.72;73.03;99026.59;4988134;28;20054;-56
2021/11/03 10:27:13;;;;;;;4.88;2.55;;;;;;;8.70;73.08;99038.69;4985583;28;20042;-56
2021/11/03 10:30:13;;;;;;;5.97;3.53;;;;;;;8.64;73.23;99038.75;4985419;28;20053;-49
2021/11/03 10:32:43;;;;;;;8.55;3.60;;;;;;;8.68;73.17;99044.72;4981368;28;20066;-47
2021/11/03 10:35:38;;;;;;;7.90;3.63;;;;;;;8.66;73.65;99047.34;4983023;28;20146;-46
2021/11/03 10:38:24;;;;;;;5.68;3.20;;;;;;;8.65;73.83;99044.75;4986553;28;20073;-53
2021/11/03 10:41:01;;;;;;;5.90;2.63;;;;;;;8.66;74.08;99046.47;4985472;28;20053;-52
2021/11/03 10:43:39;;;;;;;7.32;3.40;;;;;;;8.70;73.13;99048.13;4984047;28;20437;-55
2021/11/03 10:46:23;;;;;;;7.72;3.65;;;;;;;8.76;74.02;99057.53;4986251;28;20061;-57
2021/11/03 10:49:07;;;;;;;6.57;3.05;;;;;;;8.84;72.96;99058.31;4983907;28;20054;-54
2021/11/03 10:51:39;;;;;;;5.45;2.42;;;;;;;8.89;72.84;99059.13;4971149;28;20050;-54
2021/11/03 10:54:16;;;;;;;4.93;2.85;;;;;;;8.84;73.39;99061.75;4990761;28;20049;-53
2021/11/03 10:56:53;;;;;;;7.25;3.13;;;;;;;8.77;73.59;99065.28;4980517;28;20053;-57
2021/11/03 10:59:28;;;;;;;3.88;2.72;;;;;;;8.73;73.10;99067.06;4982576;28;20061;-51
2021/11/03 11:02:12;;;;;;;5.22;2.72;;;;;;;8.78;72.40;99058.41;4987109;28;20611;-52
2021/11/03 11:04:41;;;;;;;4.22;1.83;;;;;;;8.79;73.14;99067.84;4984632;28;20046;-55
2021/11/03 11:07:39;;;;;;;6.28;2.45;;;;;;;8.81;73.32;99066.13;4985649;28;20051;-49
2021/11/03 11:10:28;;;;;;;5.60;2.78;;;;;;;8.91;72.67;99070.28;5004839;28;20053;-54
2021/11/03 11:12:56;;;;;;;7.47;2.80;;;;;;;9.03;73.27;99063.25;4983984;28;20077;-51
2021/11/03 11:15:48;;;;;;;4.50;1.83;;;;;;;9.09;73.17;99065.78;4982517;28;20050;-49
2021/11/03 11:18:41;;;;;;;6.38;3.67;;;;;;;9.11;73.06;99061.44;4982706;28;20500;-49
2021/11/03 11:21:17;;;;;;;5.20;2.63;;;;;;;9.13;72.16;99060.53;4982852;28;21247;-53
2021/11/03 11:23:54;;;;;;;6.50;3.05;;;;;;;9.15;72.25;99065.69;4984594;28;20053;-56
2021/11/03 11:26:33;;;;;;;6.10;3.17;;;;;;;9.13;72.21;99077.78;4984332;28;20058;-49
2021/11/03 11:29:24;;;;;;;4.68;1.80;;;;;;;9.03;72.26;99076.16;4985457;28;20049;-54
2021/11/03 11:32:31;;;;;;;4.10;2.15;;;;;;;8.99;72.97;99081.38;4980071;28;20148;-51
2021/11/03 11:35:13;;;;;;;4.18;1.40;;;;;;;8.99;72.39;99083.13;4973103;28;20046;-50
2021/11/03 11:38:04;;;;;;;4.35;2.50;;;;;;;8.98;72.55;99083.97;4983122;28;20057;-54
2021/11/03 11:40:51;;;;;;;5.78;2.25;;;;;;;9.04;72.54;99088.19;4979982;28;20073;-47
2021/11/03 11:43:36;;;;;;;3.65;1.85;;;;;;;9.07;72.28;99090.75;5000865;28;20061;-49
2021/11/03 11:46:11;;;;;;;5.80;2.10;;;;;;;9.16;71.60;99082.91;4984265;28;20077;-57
2021/11/03 11:48:39;;;;;;;4.68;2.60;;;;;;;9.24;71.93;99081.09;4980984;28;20050;-50
2021/11/03 11:51:12;;;;;;;4.18;1.65;;;;;;;9.32;71.89;99077.53;4986535;28;20064;-59